Time;durP1;ratioP1;P1;durP2;ratioP2;P2;SDS_P1;SDS_P2;PMS_P1;PMS_P2;Temp;Humidity;BMP_temperature;BMP_pressure;BME280_temperature;BME280_humidity;BME280_pressure;Samples;Min_cycle;Max_cycle;Signal;HPM_P1;HPM_P2
2022/09/04 00:02:47;;;;;;;6.43;1.23;;;16.40;1.00;;;;;;5034200;28;20049;-26
2022/09/04 00:05:29;;;;;;;4.35;1.10;;;16.30;1.00;;;;;;5025060;28;20057;-26
2022/09/04 00:08:14;;;;;;;4.17;1.03;;;16.30;1.00;;;;;;5035478;28;20046;-26
2022/09/04 00:11:05;;;;;;;4.85;1.05;;;16.40;1.00;;;;;;5034811;28;20041;-26
2022/09/04 00:13:44;;;;;;;6.55;1.20;;;16.40;1.00;;;;;;5035305;28;20041;-26
2022/09/04 00:16:20;;;;;;;4.53;1.20;;;16.30;1.00;;;;;;5034410;28;20549;-26
2022/09/04 00:19:19;;;;;;;5.57;1.20;;;16.30;1.00;;;;;;5034611;28;20051;-26
2022/09/04 00:22:23;;;;;;;1.77;0.80;;;16.30;1.00;;;;;;5035099;28;20132;-26
2022/09/04 00:24:55;;;;;;;;;;;16.30;1.00;;;;;;5034937;28;20045;-26
2022/09/04 00:27:26;;;;;;;6.60;1.17;;;16.30;1.00;;;;;;5034501;28;20019;-26
2022/09/04 00:30:02;;;;;;;5.10;1.15;;;16.20;1.00;;;;;;5035022;28;20085;-26
2022/09/04 00:32:30;;;;;;;4.20;1.40;;;16.20;1.00;;;;;;5034681;28;20052;-26
2022/09/04 00:35:14;;;;;;;3.70;1.00;;;16.10;1.00;;;;;;5034058;28;20061;-26
2022/09/04 00:38:02;;;;;;;5.13;1.08;;;16.10;1.00;;;;;;5034385;28;20144;-26
2022/09/04 00:40:40;;;;;;;4.43;1.10;;;16.10;1.00;;;;;;5050519;28;20198;-26
2022/09/04 00:43:28;;;;;;;4.72;1.02;;;16.10;1.00;;;;;;5034306;28;20042;-26
2022/09/04 00:45:59;;;;;;;5.07;1.00;;;16.00;1.00;;;;;;5034415;28;20056;-26
2022/09/04 00:49:02;;;;;;;5.10;0.95;;;16.00;1.00;;;;;;5034114;28;20053;-26
2022/09/04 00:51:32;;;;;;;5.95;1.30;;;16.00;1.00;;;;;;5034369;28;20129;-26
2022/09/04 00:54:25;;;;;;;4.72;1.10;;;15.90;1.00;;;;;;5034305;28;20502;-26
2022/09/04 00:57:29;;;;;;;5.32;1.02;;;15.90;1.00;;;;;;5035461;28;20364;-26
2022/09/04 01:00:16;;;;;;;2.72;1.10;;;15.90;1.00;;;;;;5034159;28;20049;-27
2022/09/04 01:03:02;;;;;;;4.60;1.30;;;15.80;1.00;;;;;;5033826;28;20057;-26
2022/09/04 01:06:06;;;;;;;2.35;1.08;;;15.70;1.00;;;;;;5033678;28;20483;-26
2022/09/04 01:09:09;;;;;;;2.90;0.90;;;15.70;1.00;;;;;;5034432;28;20049;-26
2022/09/04 01:11:42;;;;;;;3.28;0.95;;;15.60;1.00;;;;;;5033814;28;20392;-26
2022/09/04 01:14:38;;;;;;;5.32;0.90;;;15.60;1.00;;;;;;5033846;28;20053;-26
2022/09/04 01:17:40;;;;;;;3.70;1.30;;;15.60;1.00;;;;;;5033084;28;20050;-26
2022/09/04 01:20:36;;;;;;;6.75;1.20;;;15.50;98.00;;;;;;5022066;28;20509;-26
2022/09/04 01:23:31;;;;;;;5.47;1.23;;;15.50;14.80;;;;;;5034544;28;20060;-26
2022/09/04 01:26:08;;;;;;;3.72;1.05;;;15.50;31.20;;;;;;5033947;28;20484;-26
2022/09/04 01:29:00;;;;;;;6.40;1.40;;;15.40;99.90;;;;;;5033970;28;20041;-26
2022/09/04 01:32:01;;;;;;;7.97;1.30;;;15.30;62.50;;;;;;5033602;28;20499;-26
2022/09/04 01:34:45;;;;;;;3.45;1.38;;;15.30;99.90;;;;;;5021877;28;20509;-26
2022/09/04 01:37:29;;;;;;;7.95;1.50;;;15.30;94.70;;;;;;5034138;28;20132;-26
2022/09/04 01:40:17;;;;;;;5.00;1.42;;;15.30;99.90;;;;;;5032844;28;20053;-26
2022/09/04 01:42:49;;;;;;;7.80;1.98;;;15.30;99.90;;;;;;5033549;28;20067;-26
2022/09/04 01:45:24;;;;;;;6.57;1.60;;;15.30;99.90;;;;;;5033549;28;20049;-26
2022/09/04 01:47:56;;;;;;;2.20;1.20;;;15.30;99.90;;;;;;5033530;28;20049;-26
2022/09/04 01:50:25;;;;;;;7.55;1.27;;;15.30;99.90;;;;;;5033459;28;20041;-26
2022/09/04 01:53:17;;;;;;;4.72;1.42;;;15.20;99.90;;;;;;5033397;28;20110;-26
2022/09/04 01:55:56;;;;;;;5.32;1.42;;;15.20;99.90;;;;;;5033274;28;20041;-26
2022/09/04 01:58:36;;;;;;;5.10;1.70;;;15.10;99.90;;;;;;5033380;28;20046;-26
2022/09/04 02:01:24;;;;;;;4.72;1.52;;;15.10;99.90;;;;;;5033285;28;20040;-26
2022/09/04 02:04:20;;;;;;;4.05;1.67;;;15.10;99.90;;;;;;5033341;28;20143;-26
2022/09/04 02:07:19;;;;;;;8.60;1.75;;;15.00;99.90;;;;;;5033917;28;20053;-26
2022/09/04 02:10:06;;;;;;;9.10;1.58;;;15.10;99.90;;;;;;5033153;28;20180;-26
2022/09/04 02:12:54;;;;;;;3.83;1.40;;;15.00;99.90;;;;;;5032687;28;20050;-26
2022/09/04 02:15:32;;;;;;;5.57;1.80;;;15.00;99.90;;;;;;5033242;28;20045;-26
2022/09/04 02:18:23;;;;;;;3.70;1.45;;;15.10;99.90;;;;;;5032800;28;20057;-26
2022/09/04 02:20:58;;;;;;;4.43;1.23;;;15.00;99.90;;;;;;5033748;28;20430;-26
2022/09/04 02:23:48;;;;;;;7.05;1.45;;;15.00;99.90;;;;;;5034011;28;20143;-26
2022/09/04 02:26:27;;;;;;;6.03;1.73;;;15.00;99.90;;;;;;5035989;28;20045;-26
2022/09/04 02:29:30;;;;;;;7.65;1.52;;;15.00;99.90;;;;;;5036812;28;20053;-26
2022/09/04 02:32:08;;;;;;;6.90;1.50;;;15.00;99.90;;;;;;5030672;28;20111;-26
2022/09/04 02:34:41;;;;;;;7.88;1.58;;;15.00;99.90;;;;;;5036489;28;20110;-26
2022/09/04 02:37:32;;;;;;;4.60;1.80;;;14.90;99.90;;;;;;5037235;28;20539;-27
2022/09/04 02:40:12;;;;;;;2.45;1.40;;;15.00;99.90;;;;;;5037073;28;20061;-27
2022/09/04 02:42:50;;;;;;;3.05;1.13;;;14.90;99.90;;;;;;5035236;28;20456;-26
2022/09/04 02:45:16;;;;;;;6.18;1.55;;;14.80;99.90;;;;;;5036409;28;20054;-26
2022/09/04 02:47:41;;;;;;;4.53;1.60;;;14.80;99.90;;;;;;5018975;28;20140;-26
2022/09/04 02:50:49;;;;;;;2.97;1.50;;;14.80;99.90;;;;;;5036315;28;20391;-26
2022/09/04 02:53:40;;;;;;;6.95;1.30;;;14.70;1.00;;;;;;5036893;28;20053;-26
2022/09/04 02:56:38;;;;;;;6.28;1.77;;;14.70;1.00;;;;;;5036258;28;20041;-26
2022/09/04 02:59:25;;;;;;;3.58;1.50;;;14.60;1.00;;;;;;5036087;28;20056;-26
2022/09/04 03:02:01;;;;;;;3.75;1.35;;;14.60;1.00;;;;;;5034668;28;20045;-27
2022/09/04 03:04:48;;;;;;;3.72;1.27;;;14.60;1.00;;;;;;5036945;28;20049;-26
2022/09/04 03:07:23;;;;;;;8.15;1.55;;;14.50;1.00;;;;;;5035380;28;20057;-26
2022/09/04 03:10:23;;;;;;;8.57;1.50;;;14.50;1.00;;;;;;5035969;28;20045;-26
2022/09/04 03:13:13;;;;;;;3.42;1.30;;;14.50;1.00;;;;;;5036241;28;20045;-26
2022/09/04 03:15:44;;;;;;;3.83;1.35;;;14.40;1.00;;;;;;5035925;28;20053;-26
2022/09/04 03:18:16;;;;;;;6.30;1.80;;;14.30;1.00;;;;;;5035912;28;20046;-26
2022/09/04 03:20:52;;;;;;;4.13;1.40;;;14.30;1.00;;;;;;5035760;28;20045;-26
2022/09/04 03:23:24;;;;;;;3.92;1.30;;;14.30;1.00;;;;;;5035617;28;20551;-26
2022/09/04 03:26:17;;;;;;;8.50;1.60;;;14.20;10.60;;;;;;5036297;28;20060;-26
2022/09/04 03:29:28;;;;;;;5.63;2.45;;;14.20;58.00;;;;;;5035955;28;20049;-26
2022/09/04 03:32:05;;;;;;;4.90;1.67;;;14.20;99.90;;;;;;5035893;28;20052;-26
2022/09/04 03:34:42;;;;;;;5.13;1.55;;;14.20;99.90;;;;;;5034210;28;20053;-26
2022/09/04 03:37:35;;;;;;;5.70;1.45;;;14.20;99.90;;;;;;5034303;28;20049;-26
2022/09/04 03:40:41;;;;;;;4.40;1.65;;;14.10;99.90;;;;;;5035305;28;20409;-26
2022/09/04 03:43:31;;;;;;;5.13;1.65;;;14.00;99.90;;;;;;5035466;28;20049;-26
2022/09/04 03:46:10;;;;;;;4.32;1.60;;;14.00;99.90;;;;;;5035315;28;20136;-26
2022/09/04 03:49:15;;;;;;;3.35;1.50;;;14.00;99.90;;;;;;5035264;28;20459;-27
2022/09/04 03:52:13;;;;;;;4.93;1.45;;;13.90;99.90;;;;;;5035200;28;20483;-26
2022/09/04 03:55:06;;;;;;;5.57;1.23;;;13.90;99.90;;;;;;5035446;28;20068;-27
2022/09/04 03:57:32;;;;;;;5.95;1.67;;;13.90;99.90;;;;;;5035685;28;20482;-26
2022/09/04 04:00:05;;;;;;;6.55;1.60;;;13.90;99.90;;;;;;5035017;28;20088;-26
2022/09/04 04:02:46;;;;;;;3.35;1.60;;;13.90;99.90;;;;;;5035082;28;20543;-26
2022/09/04 04:05:58;;;;;;;7.15;1.98;;;13.80;99.90;;;;;;5035207;28;20136;-26
2022/09/04 04:08:45;;;;;;;5.72;1.75;;;13.80;99.90;;;;;;5035463;28;20041;-26
2022/09/04 04:11:34;;;;;;;4.25;1.40;;;13.80;99.90;;;;;;5035378;28;20128;-26
2022/09/04 04:14:29;;;;;;;2.97;1.50;;;13.80;99.90;;;;;;5034354;28;20465;-27
2022/09/04 04:17:29;;;;;;;6.68;1.50;;;13.70;99.90;;;;;;5035023;28;20452;-26
2022/09/04 04:20:13;;;;;;;3.30;1.60;;;13.70;99.90;;;;;;5035553;28;20491;-26
2022/09/04 04:23:16;;;;;;;3.92;1.52;;;13.60;99.90;;;;;;5034655;28;20048;-26
2022/09/04 04:26:14;;;;;;;5.97;1.50;;;13.60;99.90;;;;;;5034342;28;20530;-26
2022/09/04 04:29:07;;;;;;;2.45;1.40;;;13.60;99.90;;;;;;5034765;28;20451;-26
2022/09/04 04:32:10;;;;;;;5.30;1.70;;;13.60;1.00;;;;;;5034500;28;20038;-26
2022/09/04 04:35:00;;;;;;;6.47;2.00;;;13.80;1.00;;;;;;5033742;28;20062;-26
2022/09/04 04:37:58;;;;;;;4.13;1.52;;;13.90;99.90;;;;;;5035213;28;20375;-27
2022/09/04 04:40:47;;;;;;;3.92;1.70;;;14.00;99.90;;;;;;5030038;28;20049;-26
2022/09/04 04:43:36;;;;;;;4.05;1.60;;;14.10;99.90;;;;;;5033010;28;20140;-26
2022/09/04 04:46:38;;;;;;;4.55;2.03;;;14.20;99.90;;;;;;5023648;28;20046;-26
2022/09/04 04:49:15;;;;;;;5.80;1.77;;;14.20;99.90;;;;;;5034127;28;20050;-26
2022/09/04 04:52:00;;;;;;;6.25;1.80;;;14.20;99.90;;;;;;5034050;28;20052;-26
2022/09/04 04:55:05;;;;;;;5.53;1.55;;;14.20;99.90;;;;;;5034393;28;20049;-26
2022/09/04 04:58:17;;;;;;;3.28;1.63;;;14.20;99.90;;;;;;5034844;28;20049;-26
2022/09/04 05:01:14;;;;;;;5.47;2.30;;;14.10;99.90;;;;;;5024281;28;20080;-26
2022/09/04 05:04:16;;;;;;;4.55;2.28;;;14.00;99.90;;;;;;5034046;28;20061;-26
2022/09/04 05:06:47;;;;;;;6.95;1.80;;;14.00;99.90;;;;;;5034468;28;20048;-26
2022/09/04 05:09:23;;;;;;;6.72;1.58;;;14.00;99.90;;;;;;5034393;28;20047;-26
2022/09/04 05:12:13;;;;;;;4.65;2.15;;;13.90;99.90;;;;;;5034411;28;20453;-26
2022/09/04 05:14:59;;;;;;;6.95;1.77;;;13.90;99.90;;;;;;5032578;28;20187;-26
2022/09/04 05:17:37;;;;;;;4.32;1.85;;;13.90;99.90;;;;;;5033382;28;20380;-26
2022/09/04 05:20:23;;;;;;;7.32;1.80;;;14.00;1.00;;;;;;5033692;28;20057;-26
2022/09/04 05:22:57;;;;;;;6.38;1.58;;;14.00;1.00;;;;;;5033729;28;20075;-26
2022/09/04 05:25:36;;;;;;;5.63;1.92;;;14.00;1.00;;;;;;5033693;28;20045;-26
2022/09/04 05:28:25;;;;;;;5.90;1.77;;;14.10;1.00;;;;;;5033693;28;20049;-26
2022/09/04 05:31:05;;;;;;;4.40;1.70;;;14.10;1.00;;;;;;5034181;28;20120;-26
2022/09/04 05:33:49;;;;;;;6.10;1.90;;;14.20;1.00;;;;;;5033635;28;20080;-26
2022/09/04 05:36:14;;;;;;;3.38;1.50;;;14.30;1.00;;;;;;5033245;28;20061;-26
2022/09/04 05:38:49;;;;;;;5.43;1.90;;;14.30;1.00;;;;;;5033555;28;20072;-26
2022/09/04 05:41:39;;;;;;;6.00;1.85;;;14.40;99.90;;;;;;5033419;28;20488;-26
2022/09/04 05:44:31;;;;;;;7.15;2.65;;;14.40;99.90;;;;;;5033548;28;20057;-26
2022/09/04 05:47:06;;;;;;;6.07;1.83;;;14.50;99.90;;;;;;5033526;28;20049;-26
2022/09/04 05:49:53;;;;;;;5.30;1.95;;;14.50;99.90;;;;;;5033739;28;20042;-26
2022/09/04 05:52:56;;;;;;;3.92;1.98;;;14.60;99.90;;;;;;5034081;28;20067;-26
2022/09/04 05:55:40;;;;;;;4.38;1.45;;;14.70;99.90;;;;;;5033091;28;20496;-26
2022/09/04 05:58:21;;;;;;;5.68;2.42;;;14.80;99.90;;;;;;5034223;28;20128;-27
2022/09/04 06:01:28;;;;;;;6.25;1.83;;;14.80;99.90;;;;;;5037254;28;20050;-26
2022/09/04 06:04:28;;;;;;;4.85;2.13;;;14.90;99.90;;;;;;5037486;28;20053;-26
2022/09/04 06:07:22;;;;;;;4.40;2.10;;;15.00;99.90;;;;;;5018591;28;20053;-26
2022/09/04 06:10:33;;;;;;;4.50;2.10;;;15.00;99.90;;;;;;5037123;28;20069;-26
2022/09/04 06:13:39;;;;;;;6.38;1.80;;;15.10;99.90;;;;;;5028357;28;20095;-26
2022/09/04 06:16:37;;;;;;;5.32;1.60;;;15.10;99.90;;;;;;5015965;28;20050;-26
2022/09/04 06:19:39;;;;;;;4.50;2.15;;;15.10;99.90;;;;;;4992795;28;20058;-26
2022/09/04 06:22:27;;;;;;;4.57;2.03;;;15.20;99.90;;;;;;5036382;28;20379;-26
2022/09/04 06:25:34;;;;;;;6.30;1.98;;;15.20;99.90;;;;;;5036679;28;20115;-26
2022/09/04 06:28:30;;;;;;;3.03;1.85;;;15.30;99.90;;;;;;5035790;28;20053;-26
2022/09/04 06:31:22;;;;;;;4.70;1.92;;;15.30;99.90;;;;;;5036731;28;20095;-27
2022/09/04 06:34:37;;;;;;;6.88;2.50;;;15.30;99.90;;;;;;5028119;28;20512;-26
2022/09/04 06:37:02;;;;;;;6.65;2.30;;;15.30;99.90;;;;;;5020236;28;20141;-26
2022/09/04 06:39:53;;;;;;;7.13;2.28;;;15.40;99.90;;;;;;5035591;28;20087;-26
2022/09/04 06:42:44;;;;;;;6.68;1.65;;;15.40;99.90;;;;;;5036933;28;20049;-27
2022/09/04 06:45:34;;;;;;;3.58;1.75;;;15.50;99.90;;;;;;5036034;28;20049;-26
2022/09/04 06:48:26;;;;;;;5.45;2.17;;;15.60;99.90;;;;;;5036742;28;20057;-26
2022/09/04 06:51:09;;;;;;;5.18;1.92;;;15.70;99.90;;;;;;5037207;28;20111;-27
2022/09/04 06:53:49;;;;;;;5.40;2.10;;;15.80;99.90;;;;;;5036229;28;20104;-26
2022/09/04 06:56:26;;;;;;;5.20;2.50;;;15.90;99.90;;;;;;5036829;28;20283;-26
2022/09/04 06:59:07;;;;;;;3.85;2.13;;;16.00;99.90;;;;;;5036785;28;20045;-26
2022/09/04 07:02:24;;;;;;;3.72;1.63;;;16.10;99.90;;;;;;5035041;28;20056;-26
2022/09/04 07:05:14;;;;;;;6.82;1.80;;;16.20;99.90;;;;;;5027487;28;20053;-26
2022/09/04 07:07:52;;;;;;;5.00;1.90;;;16.30;99.90;;;;;;5036275;28;20056;-26
2022/09/04 07:10:53;;;;;;;6.25;2.00;;;16.40;99.90;;;;;;5034760;28;20053;-26
2022/09/04 07:13:30;;;;;;;6.00;1.92;;;16.50;99.90;;;;;;5035926;28;20396;-26
2022/09/04 07:16:24;;;;;;;4.70;1.85;;;16.60;99.90;;;;;;5035854;28;20047;-26
2022/09/04 07:18:50;;;;;;;6.90;2.13;;;16.70;99.90;;;;;;5036436;28;20437;-28
2022/09/04 07:21:38;;;;;;;4.07;1.73;;;16.90;99.90;;;;;;5034253;28;20530;-26
2022/09/04 07:24:43;;;;;;;5.35;2.25;;;17.00;99.90;;;;;;5036111;28;20099;-26
2022/09/04 07:27:34;;;;;;;7.07;1.77;;;17.20;76.60;;;;;;5020267;28;20388;-26
2022/09/04 07:30:07;;;;;;;4.95;1.88;;;17.40;12.40;;;;;;5035522;28;20128;-26
2022/09/04 07:32:54;;;;;;;5.28;2.15;;;17.50;1.00;;;;;;5017894;28;20041;-27
2022/09/04 07:35:35;;;;;;;6.22;1.88;;;17.60;1.00;;;;;;5035303;28;20148;-27
2022/09/04 07:38:19;;;;;;;5.70;1.83;;;17.70;1.00;;;;;;5034974;28;20049;-27
2022/09/04 07:40:52;;;;;;;4.82;1.73;;;17.80;1.00;;;;;;5035283;28;20055;-27
2022/09/04 07:43:23;;;;;;;6.28;2.00;;;17.90;1.00;;;;;;5035229;28;20069;-27
2022/09/04 07:46:02;;;;;;;7.45;1.73;;;18.00;1.00;;;;;;5035419;28;20045;-27
2022/09/04 07:48:42;;;;;;;9.40;2.03;;;18.10;1.00;;;;;;5035677;28;20052;-27
2022/09/04 07:51:14;;;;;;;3.08;1.50;;;18.20;1.00;;;;;;5035436;28;20478;-27
2022/09/04 07:54:01;;;;;;;5.25;1.77;;;18.30;1.00;;;;;;5035064;28;20052;-27
2022/09/04 07:57:04;;;;;;;2.53;1.63;;;18.40;1.00;;;;;;5035810;28;20068;-27
2022/09/04 07:59:36;;;;;;;3.63;1.52;;;18.50;1.00;;;;;;5035262;28;20446;-27
2022/09/04 08:02:21;;;;;;;4.13;1.58;;;18.60;99.90;;;;;;5033568;28;20530;-27
2022/09/04 08:05:08;;;;;;;3.20;1.73;;;18.70;1.00;;;;;;5034875;28;20556;-27
2022/09/04 08:07:36;;;;;;;3.00;1.58;;;18.90;99.90;;;;;;5034728;28;20050;-27
2022/09/04 08:10:32;;;;;;;3.90;1.50;;;19.00;99.90;;;;;;5033755;28;20049;-27
2022/09/04 08:13:21;;;;;;;2.63;1.60;;;19.10;99.90;;;;;;5035200;28;20107;-27
2022/09/04 08:16:05;;;;;;;8.93;1.77;;;19.10;99.90;;;;;;5034597;28;20061;-27
2022/09/04 08:19:08;;;;;;;4.20;1.55;;;19.20;99.90;;;;;;5034556;28;20045;-28
2022/09/04 08:21:41;;;;;;;3.60;1.77;;;19.30;99.90;;;;;;5034574;28;20515;-27
2022/09/04 08:24:15;;;;;;;2.78;1.80;;;19.40;99.90;;;;;;5033520;28;20057;-27
2022/09/04 08:26:59;;;;;;;7.45;2.08;;;19.50;99.90;;;;;;5035109;28;20045;-27
2022/09/04 08:29:25;;;;;;;5.05;1.70;;;19.60;99.90;;;;;;5034571;28;20480;-27
2022/09/04 08:32:21;;;;;;;7.18;1.88;;;19.70;99.90;;;;;;5033495;28;20050;-27
2022/09/04 08:35:17;;;;;;;3.50;1.65;;;19.80;99.90;;;;;;5034339;28;20049;-27
2022/09/04 08:38:02;;;;;;;7.60;2.00;;;20.00;99.90;;;;;;5034895;28;20049;-27
2022/09/04 08:40:33;;;;;;;5.35;1.80;;;20.20;99.90;;;;;;5034546;28;20454;-27
2022/09/04 08:43:08;;;;;;;4.47;1.55;;;20.30;99.90;;;;;;5034114;28;20407;-27
2022/09/04 08:45:37;;;;;;;3.80;2.08;;;20.40;99.90;;;;;;5034193;28;20045;-27
2022/09/04 08:48:12;;;;;;;4.13;1.30;;;20.60;99.90;;;;;;5034457;28;20407;-27
2022/09/04 08:51:15;;;;;;;5.70;1.77;;;20.80;99.90;;;;;;5035045;28;20419;-28
2022/09/04 08:54:22;;;;;;;4.50;1.48;;;21.00;48.70;;;;;;5033806;28;20495;-28
2022/09/04 08:57:09;;;;;;;4.53;1.67;;;21.20;1.00;;;;;;5034738;28;20136;-27
2022/09/04 09:00:02;;;;;;;3.33;1.38;;;21.40;47.00;;;;;;5033866;28;20056;-27
2022/09/04 09:02:46;;;;;;;14.18;2.47;;;21.50;1.00;;;;;;5033621;28;20144;-27
2022/09/04 09:05:55;;;;;;;3.00;1.40;;;21.60;1.00;;;;;;5034219;28;20053;-27
2022/09/04 09:08:38;;;;;;;2.63;1.40;;;22.00;1.00;;;;;;5032899;28;20053;-28
2022/09/04 09:11:37;;;;;;;9.15;1.30;;;22.90;99.90;;;;;;5033924;28;20042;-27
2022/09/04 09:14:37;;;;;;;4.50;1.13;;;23.80;99.90;;;;;;5034137;28;20068;-28
2022/09/04 09:17:39;;;;;;;4.93;1.52;;;24.40;91.40;;;;;;5033868;28;20128;-28
2022/09/04 09:20:52;;;;;;;2.83;1.30;;;24.80;77.00;;;;;;5034339;28;20399;-27
2022/09/04 09:23:21;;;;;;;2.50;1.33;;;25.30;1.00;;;;;;5031479;28;20136;-27
2022/09/04 09:26:27;;;;;;;6.18;1.25;;;25.90;50.70;;;;;;5034451;28;20077;-27
2022/09/04 09:29:18;;;;;;;2.15;1.10;;;26.10;90.50;;;;;;5011574;28;20049;-28
2022/09/04 09:32:08;;;;;;;6.33;1.20;;;26.10;74.00;;;;;;5033646;28;20058;-27
2022/09/04 09:35:32;;;;;;;3.78;1.33;;;26.30;99.90;;;;;;5036619;28;20053;-27
2022/09/04 09:38:31;;;;;;;2.67;1.33;;;26.30;99.90;;;;;;5026561;28;20053;-28
2022/09/04 09:41:24;;;;;;;4.10;0.95;;;26.30;99.90;;;;;;5037853;28;20049;-27
2022/09/04 09:44:04;;;;;;;2.88;1.13;;;26.20;99.90;;;;;;5037552;28;20045;-28
2022/09/04 09:47:01;;;;;;;3.78;1.10;;;26.00;99.90;;;;;;5037565;28;20054;-28
2022/09/04 09:49:41;;;;;;;5.03;1.02;;;26.10;99.90;;;;;;5037491;28;20088;-28
2022/09/04 09:52:35;;;;;;;3.30;1.20;;;26.40;99.90;;;;;;5036822;28;20053;-27
2022/09/04 09:55:28;;;;;;;3.92;1.27;;;26.30;99.90;;;;;;5038248;28;20072;-28
2022/09/04 09:58:18;;;;;;;2.80;1.13;;;26.40;99.90;;;;;;5037456;28;20052;-27
2022/09/04 10:01:18;;;;;;;1.83;1.27;;;26.50;99.90;;;;;;5037281;28;20095;-28
2022/09/04 10:04:05;;;;;;;6.15;1.17;;;26.60;99.90;;;;;;5037293;28;20056;-27
2022/09/04 10:07:18;;;;;;;4.53;1.23;;;26.50;99.90;;;;;;5036618;28;20486;-27
2022/09/04 10:10:00;;;;;;;4.32;1.00;;;26.80;99.90;;;;;;5037201;28;20045;-27
2022/09/04 10:12:57;;;;;;;2.90;1.05;;;27.50;99.90;;;;;;5037171;28;20057;-28
2022/09/04 10:15:48;;;;;;;2.33;1.15;;;28.00;99.90;;;;;;5037624;28;20095;-28
2022/09/04 10:18:39;;;;;;;6.45;1.17;;;28.40;99.90;;;;;;5037620;28;20053;-28
2022/09/04 10:21:32;;;;;;;1.30;0.80;;;28.60;99.90;;;;;;5037747;28;20045;-28
2022/09/04 10:24:26;;;;;;;2.97;0.90;;;28.90;99.90;;;;;;5036614;28;20491;-28
2022/09/04 10:27:06;;;;;;;1.70;0.70;;;28.90;99.90;;;;;;5036854;28;20155;-28
2022/09/04 10:29:32;;;;;;;4.97;1.13;;;28.90;1.00;;;;;;5037317;28;20360;-28
2022/09/04 10:32:32;;;;;;;4.32;0.80;;;28.70;1.00;;;;;;5036761;28;20094;-28
2022/09/04 10:35:30;;;;;;;1.30;0.60;;;28.50;1.00;;;;;;5036326;28;20148;-28
2022/09/04 10:38:13;;;;;;;8.18;1.13;;;28.40;1.00;;;;;;5035458;28;20435;-28
2022/09/04 10:40:58;;;;;;;2.65;0.93;;;28.20;1.00;;;;;;5037375;28;20045;-28
2022/09/04 10:44:01;;;;;;;2.55;1.10;;;28.20;1.00;;;;;;5037067;28;20388;-28
2022/09/04 10:47:04;;;;;;;3.38;1.20;;;28.10;1.00;;;;;;5035830;28;20104;-28
2022/09/04 10:50:05;;;;;;;2.72;0.80;;;28.40;1.00;;;;;;5036454;28;20483;-28
2022/09/04 10:52:40;;;;;;;4.65;1.00;;;28.60;1.00;;;;;;5037242;28;20046;-28
2022/09/04 10:55:27;;;;;;;4.20;0.73;;;28.60;1.00;;;;;;5036355;28;20056;-28
2022/09/04 10:58:31;;;;;;;2.95;0.77;;;28.60;1.00;;;;;;5036913;28;20108;-29
2022/09/04 11:01:16;;;;;;;3.90;0.80;;;28.70;1.00;;;;;;5035203;28;20053;-29
2022/09/04 11:04:19;;;;;;;3.10;0.80;;;28.60;1.00;;;;;;5036156;28;20133;-28
2022/09/04 11:07:02;;;;;;;9.07;1.27;;;28.50;1.00;;;;;;5036079;28;20053;-28
2022/09/04 11:09:34;;;;;;;2.17;1.10;;;28.70;5.10;;;;;;5036170;28;20064;-28
2022/09/04 11:12:24;;;;;;;4.45;1.20;;;29.00;4.80;;;;;;5036576;28;20128;-28
2022/09/04 11:14:59;;;;;;;3.22;1.10;;;29.00;25.30;;;;;;5035932;28;20053;-29
2022/09/04 11:17:54;;;;;;;2.08;1.10;;;29.20;58.40;;;;;;5034982;28;20392;-28
2022/09/04 11:20:44;;;;;;;2.47;0.70;;;29.40;97.30;;;;;;5036307;28;20057;-28
2022/09/04 11:23:41;;;;;;;3.38;1.30;;;29.60;99.90;;;;;;5035778;28;20399;-28
2022/09/04 11:26:48;;;;;;;3.15;1.10;;;29.90;99.90;;;;;;5035793;28;20053;-28
2022/09/04 11:29:16;;;;;;;4.88;1.20;;;30.20;99.90;;;;;;5028132;28;20160;-29
2022/09/04 11:32:34;;;;;;;5.38;1.42;;;30.30;99.90;;;;;;5035600;28;20042;-28
2022/09/04 11:35:22;;;;;;;2.70;1.00;;;30.10;99.90;;;;;;5015989;28;20053;-28
2022/09/04 11:37:58;;;;;;;3.75;1.23;;;30.00;99.90;;;;;;5034843;28;20558;-28
2022/09/04 11:41:14;;;;;;;4.03;1.30;;;29.70;99.90;;;;;;5035461;28;20111;-28
2022/09/04 11:44:13;;;;;;;3.95;0.95;;;29.60;99.90;;;;;;5030670;28;20062;-28
2022/09/04 11:47:06;;;;;;;4.55;1.30;;;29.40;99.90;;;;;;5034292;28;20084;-29
2022/09/04 11:49:38;;;;;;;3.85;1.02;;;29.40;99.90;;;;;;5035316;28;20077;-28
2022/09/04 11:52:25;;;;;;;3.08;1.00;;;29.30;99.90;;;;;;5035310;28;20042;-28
2022/09/04 11:55:12;;;;;;;2.85;0.90;;;29.60;99.90;;;;;;5034970;28;20496;-28
2022/09/04 11:57:53;;;;;;;5.70;0.93;;;29.80;99.90;;;;;;5033036;28;20057;-28
2022/09/04 12:00:20;;;;;;;3.13;0.80;;;30.30;99.90;;;;;;5035005;28;20048;-28
2022/09/04 12:02:57;;;;;;;2.20;1.10;;;30.60;99.90;;;;;;5035122;28;20046;-28
2022/09/04 12:05:39;;;;;;;2.20;1.00;;;30.70;99.90;;;;;;5035018;28;20085;-28
2022/09/04 12:08:26;;;;;;;2.00;0.80;;;30.50;99.90;;;;;;5035103;28;20052;-28
2022/09/04 12:11:33;;;;;;;1.65;0.75;;;30.60;99.90;;;;;;5035737;28;20041;-28
2022/09/04 12:14:13;;;;;;;3.05;0.98;;;30.60;99.90;;;;;;5033743;28;20053;-29
2022/09/04 12:16:58;;;;;;;3.90;0.90;;;30.50;99.90;;;;;;5035379;28;20045;-28
2022/09/04 12:19:25;;;;;;;4.82;1.08;;;30.50;99.90;;;;;;5034690;28;20057;-28
2022/09/04 12:22:03;;;;;;;4.13;1.13;;;30.50;99.90;;;;;;5033467;28;20483;-28
2022/09/04 12:24:57;;;;;;;3.53;0.93;;;30.60;99.90;;;;;;5034575;28;20050;-28
2022/09/04 12:27:41;;;;;;;4.20;0.80;;;30.50;99.90;;;;;;5017994;28;20058;-28
2022/09/04 12:30:24;;;;;;;2.05;0.93;;;30.60;99.90;;;;;;5035051;28;20053;-28
2022/09/04 12:33:18;;;;;;;2.60;0.88;;;30.60;99.90;;;;;;5035287;28;20049;-28
2022/09/04 12:36:09;;;;;;;4.10;0.90;;;30.60;99.90;;;;;;5034814;28;20511;-28
2022/09/04 12:38:54;;;;;;;2.95;1.30;;;30.40;99.90;;;;;;5024240;28;20060;-28
2022/09/04 12:41:35;;;;;;;5.82;0.98;;;30.40;99.90;;;;;;5034294;28;20506;-29
2022/09/04 12:44:14;;;;;;;2.78;1.20;;;30.60;99.90;;;;;;5034893;28;20057;-28
2022/09/04 12:46:55;;;;;;;5.20;1.02;;;31.10;99.90;;;;;;5017390;28;20099;-28
2022/09/04 12:49:33;;;;;;;7.07;1.00;;;31.40;99.90;;;;;;5034427;28;20045;-28
2022/09/04 12:52:07;;;;;;;3.70;1.13;;;31.40;99.90;;;;;;5033226;28;20067;-28
2022/09/04 12:54:52;;;;;;;4.05;1.02;;;31.70;99.90;;;;;;5034131;28;20053;-28
2022/09/04 12:57:24;;;;;;;1.42;0.80;;;31.90;99.90;;;;;;5034699;28;20049;-28
2022/09/04 13:00:11;;;;;;;2.70;0.85;;;31.70;99.90;;;;;;5034055;28;20057;-28
2022/09/04 13:03:02;;;;;;;2.75;1.08;;;31.40;99.90;;;;;;5032934;28;20088;-28
2022/09/04 13:05:40;;;;;;;3.20;0.88;;;31.30;99.90;;;;;;5032746;28;20064;-28
2022/09/04 13:08:18;;;;;;;1.95;0.93;;;31.30;99.90;;;;;;5034486;28;20045;-28
2022/09/04 13:10:55;;;;;;;2.20;0.77;;;31.20;99.90;;;;;;5033936;28;20499;-28
2022/09/04 13:13:34;;;;;;;2.90;1.08;;;31.30;99.90;;;;;;5033786;28;20080;-28
2022/09/04 13:16:09;;;;;;;1.08;0.77;;;31.50;99.90;;;;;;5034365;28;20091;-29
2022/09/04 13:19:01;;;;;;;3.08;1.20;;;31.60;99.90;;;;;;5033793;28;20048;-28
2022/09/04 13:21:47;;;;;;;2.67;1.00;;;31.70;99.90;;;;;;5033686;28;20048;-28
2022/09/04 13:25:01;;;;;;;3.15;0.90;;;31.80;99.90;;;;;;5034348;28;20088;-29
2022/09/04 13:27:57;;;;;;;2.30;1.00;;;32.20;99.90;;;;;;5028208;28;20065;-30
2022/09/04 13:30:25;;;;;;;1.27;0.80;;;32.40;99.90;;;;;;5033681;28;20172;-28
2022/09/04 13:33:12;;;;;;;2.35;0.90;;;32.20;99.90;;;;;;5033605;28;20053;-28
2022/09/04 13:36:01;;;;;;;2.38;0.82;;;31.90;99.90;;;;;;5034396;28;20148;-28
2022/09/04 13:38:51;;;;;;;1.63;0.98;;;31.50;99.90;;;;;;5032663;28;20045;-28
2022/09/04 13:41:45;;;;;;;1.95;0.93;;;31.40;99.90;;;;;;5033531;28;20048;-29
2022/09/04 13:44:27;;;;;;;2.20;0.73;;;31.30;99.90;;;;;;5034107;28;20046;-28
2022/09/04 13:47:08;;;;;;;1.33;0.90;;;31.40;99.90;;;;;;5032449;28;20059;-28
2022/09/04 13:50:07;;;;;;;2.22;1.00;;;31.30;99.90;;;;;;5034378;28;20506;-28
2022/09/04 13:52:50;;;;;;;3.63;1.20;;;31.00;99.90;;;;;;5032819;28;20057;-28
2022/09/04 13:55:16;;;;;;;5.65;0.93;;;30.80;99.90;;;;;;5034013;28;20046;-28
2022/09/04 13:57:56;;;;;;;2.65;0.90;;;30.90;99.90;;;;;;5033930;28;20128;-28
2022/09/04 14:00:23;;;;;;;2.40;0.90;;;30.80;99.90;;;;;;5034028;28;20463;-28
2022/09/04 14:02:55;;;;;;;3.17;1.00;;;30.60;99.90;;;;;;5033330;28;20058;-28
2022/09/04 14:05:24;;;;;;;3.40;0.90;;;30.50;99.90;;;;;;5033942;28;20049;-28
2022/09/04 14:07:58;;;;;;;1.90;1.02;;;30.40;99.90;;;;;;5032602;28;20045;-28
2022/09/04 14:10:51;;;;;;;3.58;0.90;;;30.40;99.90;;;;;;5033324;28;20535;-28
2022/09/04 14:13:35;;;;;;;2.67;1.00;;;30.60;99.90;;;;;;5033359;28;20080;-28
2022/09/04 14:16:10;;;;;;;6.68;1.02;;;30.40;99.90;;;;;;5033557;28;20476;-28
2022/09/04 14:18:59;;;;;;;4.60;0.93;;;30.70;99.90;;;;;;5033797;28;20491;-28
2022/09/04 14:21:40;;;;;;;1.55;0.80;;;31.00;99.90;;;;;;5036409;28;20045;-28
2022/09/04 14:24:37;;;;;;;2.22;1.08;;;31.20;99.90;;;;;;5037506;28;20183;-28
2022/09/04 14:27:28;;;;;;;2.90;0.75;;;31.50;99.90;;;;;;5036925;28;20569;-28
2022/09/04 14:30:13;;;;;;;2.65;0.80;;;31.40;99.90;;;;;;5036898;28;20041;-28
2022/09/04 14:32:59;;;;;;;5.68;0.80;;;31.50;99.90;;;;;;5036783;28;20081;-28
2022/09/04 14:35:34;;;;;;;3.10;1.00;;;31.40;99.90;;;;;;5036605;28;20448;-29